createdAt,value
2019-04-06T08:42:43.092Z,66.73
2019-04-06T08:45:13.827Z,62.03
2019-04-06T08:47:42.983Z,62.17
2019-04-06T08:50:13.975Z,60.73
2019-04-06T08:52:43.178Z,62.00
2019-04-06T08:55:12.227Z,61.20
2019-04-06T08:57:41.281Z,59.33
2019-04-06T09:00:10.562Z,63.57
2019-04-06T09:02:39.736Z,58.67
2019-04-06T09:05:09.243Z,55.73
2019-04-06T09:07:40.737Z,59.47
2019-04-06T09:10:12.481Z,56.63
2019-04-06T09:12:41.377Z,55.03
2019-04-06T09:15:11.252Z,63.17
2019-04-06T09:17:40.422Z,56.30
2019-04-06T09:20:10.032Z,53.20
2019-04-06T09:22:39.265Z,60.93
2019-04-06T09:25:08.445Z,55.10
2019-04-06T09:27:37.591Z,56.33
2019-04-06T09:30:07.500Z,55.43
2019-04-06T09:32:37.870Z,57.07
2019-04-06T09:35:08.809Z,56.10
2019-04-06T09:37:37.973Z,58.43
2019-04-06T09:40:07.606Z,59.10
2019-04-06T09:42:36.577Z,62.27
2019-04-06T09:45:28.625Z,57.13
2019-04-06T09:50:45.547Z,54.50
2019-04-06T09:53:33.641Z,55.25
2019-04-06T09:56:12.519Z,59.00
2019-04-06T09:59:00.796Z,56.37
2019-04-06T10:01:55.934Z,55.23
2019-04-06T10:04:44.887Z,56.75
2019-04-06T10:07:20.466Z,57.13
2019-04-06T10:10:03.231Z,55.10
2019-04-06T10:12:55.710Z,55.25
2019-04-06T10:15:43.112Z,58.78
2019-04-06T10:18:43.228Z,54.83
2019-04-06T10:21:30.412Z,55.20
2019-04-06T10:24:25.494Z,52.67
2019-04-06T10:27:13.564Z,54.65
2019-04-06T10:30:10.422Z,51.48
2019-04-06T10:32:58.872Z,52.30
2019-04-06T10:35:56.534Z,57.30
2019-04-06T10:38:53.353Z,55.03
2019-04-06T10:41:40.785Z,51.08
2019-04-06T10:44:20.509Z,51.55
2019-04-06T10:47:02.190Z,52.58
2019-04-06T10:49:53.106Z,50.83
2019-04-06T10:52:45.597Z,50.20
2019-04-06T10:55:37.345Z,52.23
2019-04-06T10:58:36.278Z,49.00
2019-04-06T11:01:16.138Z,51.58
2019-04-06T11:03:57.088Z,49.77
2019-04-06T11:06:45.609Z,49.65
2019-04-06T11:09:35.046Z,47.43
2019-04-06T11:12:26.336Z,48.60
2019-04-06T11:15:15.443Z,47.35
2019-04-06T11:17:54.021Z,47.75
2019-04-06T11:20:45.603Z,43.83
2019-04-06T11:26:36.596Z,47.23
2019-04-06T11:29:15.030Z,49.00
2019-04-06T11:32:18.396Z,44.15
2019-04-06T11:35:02.316Z,47.08
2019-04-06T11:37:45.956Z,49.67
2019-04-06T11:40:41.064Z,45.20
2019-04-06T11:43:48.562Z,45.10
2019-04-06T11:46:34.734Z,47.33
2019-04-06T11:49:38.368Z,45.65
2019-04-06T11:52:26.064Z,50.38
2019-04-06T11:55:23.263Z,46.92
2019-04-06T11:58:10.743Z,48.75
2019-04-06T12:01:01.083Z,45.80
2019-04-06T12:03:35.156Z,44.27
2019-04-06T12:06:25.981Z,48.42
2019-04-06T12:09:13.846Z,48.75
2019-04-06T12:15:01.782Z,43.85
2019-04-06T12:17:39.373Z,48.68
2019-04-06T12:20:29.557Z,49.20
2019-04-06T12:23:11.926Z,48.90
2019-04-06T12:25:53.258Z,47.58
2019-04-06T12:28:43.151Z,48.58
2019-04-06T12:31:30.534Z,47.58
2019-04-06T12:34:19.175Z,47.95
2019-04-06T12:37:27.345Z,48.65
2019-04-06T12:40:12.605Z,51.92
2019-04-06T12:46:08.119Z,48.33
2019-04-06T12:48:55.127Z,49.40
2019-04-06T12:51:35.998Z,50.92
2019-04-06T12:57:15.610Z,52.45
2019-04-06T12:59:52.308Z,55.45
2019-04-06T13:02:47.171Z,55.40
2019-04-06T13:05:33.698Z,50.83
2019-04-06T13:08:25.818Z,53.20
2019-04-06T13:11:13.622Z,53.58
2019-04-06T13:16:50.032Z,51.25
2019-04-06T13:19:24.671Z,50.55
2019-04-06T13:22:28.416Z,52.25
2019-04-06T13:25:17.886Z,51.77
2019-04-06T13:28:04.206Z,50.45
2019-04-06T13:30:46.890Z,55.92
2019-04-06T13:33:47.728Z,49.98
2019-04-06T13:36:34.869Z,50.38
2019-04-06T13:39:12.666Z,49.10
2019-04-06T13:42:01.494Z,51.35
2019-04-06T13:45:05.164Z,51.40
2019-04-06T13:47:43.422Z,48.17
2019-04-06T13:50:23.817Z,48.75
2019-04-06T13:53:03.415Z,48.75
2019-04-06T13:55:59.186Z,53.52
2019-04-06T13:58:35.610Z,49.90
2019-04-06T14:01:24.233Z,51.60
2019-04-06T14:04:05.850Z,50.00
2019-04-06T14:06:51.390Z,55.10
2019-04-06T14:09:33.373Z,52.38
2019-04-06T14:12:21.016Z,45.95
2019-04-06T14:15:09.897Z,47.85
2019-04-06T14:17:48.341Z,48.28
2019-04-06T14:20:45.169Z,48.33
2019-04-06T14:23:23.544Z,49.15
2019-04-06T14:26:05.487Z,44.95
2019-04-06T14:28:45.130Z,42.08
2019-04-06T14:31:29.048Z,46.92
2019-04-06T14:34:21.595Z,47.45
2019-04-06T14:37:00.813Z,42.90
2019-04-06T14:39:49.900Z,45.55
2019-04-06T14:42:41.575Z,45.05
2019-04-06T14:45:42.646Z,45.08
2019-04-06T14:48:20.099Z,48.73
2019-04-06T14:51:09.409Z,46.55
2019-04-06T14:53:58.920Z,49.18
2019-04-06T14:56:59.888Z,45.80
2019-04-06T14:59:54.838Z,45.85
2019-04-06T15:02:43.384Z,51.45
2019-04-06T15:05:31.890Z,48.05
2019-04-06T15:08:21.457Z,50.45
2019-04-06T15:10:58.373Z,47.65
2019-04-06T15:13:47.207Z,47.00
2019-04-06T15:16:26.989Z,45.75
2019-04-06T15:19:25.273Z,51.05
2019-04-06T15:22:12.581Z,42.93
2019-04-06T15:24:53.113Z,47.00
2019-04-06T15:27:48.978Z,47.58
2019-04-06T15:30:36.115Z,50.75
2019-04-06T15:33:22.652Z,51.28
2019-04-06T15:36:14.093Z,50.73
2019-04-06T15:38:49.190Z,52.83
2019-04-06T15:41:42.035Z,50.52
2019-04-06T15:44:19.611Z,51.10
2019-04-06T15:47:07.106Z,54.33
2019-04-06T15:50:02.437Z,50.80
2019-04-06T15:52:49.585Z,54.95
2019-04-06T15:55:30.688Z,56.00
2019-04-06T15:58:25.943Z,58.30
2019-04-06T16:01:13.942Z,55.08
2019-04-06T16:03:59.136Z,54.90
2019-04-06T16:06:41.605Z,58.08
2019-04-06T16:09:47.234Z,59.98
2019-04-06T16:12:24.242Z,60.03
2019-04-06T16:15:03.390Z,57.62
2019-04-06T16:17:54.777Z,58.25
2019-04-06T16:20:32.975Z,53.70
2019-04-06T16:23:22.198Z,57.78
2019-04-06T16:26:00.829Z,58.70
2019-04-06T16:28:50.118Z,54.10
2019-04-06T16:31:39.972Z,57.38
2019-04-06T16:34:28.812Z,55.80
2019-04-06T16:37:33.048Z,57.23
2019-04-06T16:40:27.539Z,56.83
2019-04-06T16:43:08.449Z,58.33
2019-04-06T16:45:50.185Z,55.25
2019-04-06T16:48:44.798Z,58.35
2019-04-06T16:51:28.857Z,59.30
2019-04-06T16:54:19.872Z,53.73
2019-04-06T16:57:16.148Z,60.83
2019-04-06T16:59:55.764Z,63.35
2019-04-06T17:02:52.499Z,59.20
2019-04-06T17:05:41.848Z,59.65
2019-04-06T17:08:19.059Z,64.90
2019-04-06T17:10:57.146Z,61.68
2019-04-06T17:13:44.403Z,65.47
2019-04-06T17:16:43.096Z,63.13
2019-04-06T17:19:32.444Z,63.25
2019-04-06T17:22:11.446Z,63.25
2019-04-06T17:24:57.185Z,62.78
2019-04-06T17:27:52.365Z,63.17
2019-04-06T17:30:37.177Z,63.33
2019-04-06T17:33:20.169Z,62.45
2019-04-06T17:36:05.227Z,64.03
2019-04-06T17:39:05.484Z,60.28
2019-04-06T17:41:46.979Z,62.15
2019-04-06T17:44:25.638Z,65.70
2019-04-06T17:47:18.361Z,62.43
2019-04-06T17:50:19.119Z,67.50
2019-04-06T17:53:13.550Z,65.75
2019-04-06T17:56:11.577Z,69.20
2019-04-06T17:59:12.560Z,67.95
2019-04-06T18:02:04.292Z,69.12
2019-04-06T18:05:08.399Z,75.17
2019-04-06T18:08:06.439Z,69.12
2019-04-06T18:11:07.994Z,73.85
2019-04-06T18:13:55.502Z,70.32
2019-04-06T18:16:30.008Z,74.20
2019-04-06T18:18:59.055Z,72.80
2019-04-06T18:21:28.899Z,71.43
2019-04-06T18:23:57.814Z,74.30
2019-04-06T18:26:26.709Z,74.67
2019-04-06T18:28:55.673Z,74.05
2019-04-06T18:31:50.174Z,75.87
2019-04-06T18:34:19.325Z,77.43
2019-04-06T18:37:07.854Z,82.80
2019-04-06T18:39:36.979Z,75.17
2019-04-06T18:42:06.274Z,75.17
2019-04-06T18:44:38.667Z,75.00
2019-04-06T18:47:11.250Z,79.20
2019-04-06T18:49:42.402Z,77.23
2019-04-06T18:52:11.396Z,76.87
2019-04-06T18:54:41.457Z,70.73
2019-04-06T18:57:11.604Z,79.07
2019-04-06T18:59:41.288Z,77.43
2019-04-06T19:02:11.426Z,84.63
2019-04-06T19:04:42.208Z,75.67
2019-04-06T19:07:11.139Z,73.07
2019-04-06T19:09:40.069Z,78.93
2019-04-06T19:12:09.022Z,84.60
2019-04-06T19:14:38.284Z,75.10
2019-04-06T19:17:11.813Z,79.80
2019-04-06T19:19:40.877Z,78.63
2019-04-06T19:22:10.324Z,84.70
2019-04-06T19:24:39.726Z,83.43
2019-04-06T19:27:08.945Z,80.60
2019-04-06T19:29:38.302Z,90.70
2019-04-06T19:32:10.577Z,80.80
2019-04-06T19:34:39.636Z,84.20
2019-04-06T19:37:09.786Z,85.00
2019-04-06T19:39:40.049Z,84.67
2019-04-06T19:42:09.298Z,90.37
2019-04-06T19:44:38.429Z,87.33
2019-04-06T19:47:08.027Z,89.90
2019-04-06T19:49:37.631Z,94.70
2019-04-06T19:52:06.667Z,93.87
2019-04-06T19:54:36.026Z,96.83
2019-04-06T19:57:08.643Z,83.13
2019-04-06T19:59:38.900Z,91.20
2019-04-06T20:02:08.815Z,90.47
2019-04-06T20:04:38.615Z,99.90
2019-04-06T20:07:08.209Z,94.27
2019-04-06T20:09:39.166Z,96.57
2019-04-06T20:12:08.355Z,91.83
2019-04-06T20:14:39.176Z,99.30
2019-04-06T20:17:08.636Z,93.40
2019-04-06T20:19:41.729Z,93.13
2019-04-06T20:22:10.626Z,100.47
2019-04-06T20:24:39.524Z,98.50
2019-04-06T20:27:08.557Z,104.17
2019-04-06T20:29:37.964Z,103.93
2019-04-06T20:32:07.018Z,105.90
2019-04-06T20:34:36.276Z,103.97
2019-04-06T20:37:05.562Z,105.33
2019-04-06T20:39:35.663Z,106.77
2019-04-06T20:42:06.859Z,99.80
2019-04-06T20:44:42.644Z,104.90
2019-04-06T20:47:11.506Z,102.87
2019-04-06T20:49:42.529Z,102.10
2019-04-06T20:52:12.914Z,104.10
2019-04-06T20:54:44.358Z,106.00
2019-04-06T20:57:13.340Z,106.83
2019-04-06T20:59:42.894Z,101.87
2019-04-06T21:02:12.231Z,102.43
2019-04-06T21:04:41.163Z,104.40
2019-04-06T21:07:10.159Z,100.00
2019-04-06T21:09:42.809Z,102.47
2019-04-06T21:12:13.408Z,105.70
2019-04-06T21:14:42.780Z,102.80
2019-04-06T21:17:13.481Z,103.17
2019-04-06T21:19:42.764Z,109.70
2019-04-06T21:22:13.862Z,106.50
2019-04-06T21:24:45.839Z,102.27
2019-04-06T21:27:15.013Z,104.20
2019-04-06T21:29:44.642Z,111.43
2019-04-06T21:32:13.961Z,103.50
2019-04-06T21:34:43.541Z,109.07
2019-04-06T21:37:13.355Z,110.80
2019-04-06T21:39:43.177Z,101.67
2019-04-06T21:42:13.149Z,100.87
2019-04-06T21:44:42.447Z,104.30
2019-04-06T21:47:12.127Z,98.20
2019-04-06T21:49:41.114Z,98.40
2019-04-06T21:52:13.474Z,95.43
2019-04-06T21:54:43.042Z,103.03
2019-04-06T21:57:13.423Z,88.00
2019-04-06T21:59:42.318Z,94.53
2019-04-06T22:02:11.586Z,92.90
2019-04-06T22:04:41.889Z,93.43
2019-04-06T22:07:12.956Z,91.20
2019-04-06T22:09:42.379Z,90.60
2019-04-06T22:12:15.111Z,93.97
2019-04-06T22:14:44.309Z,90.13
2019-04-06T22:17:13.185Z,96.27
2019-04-06T22:19:44.737Z,91.83
2019-04-06T22:24:50.065Z,94.20
2019-04-06T22:27:19.284Z,94.23
2019-04-06T22:29:48.158Z,98.13
2019-04-06T22:32:17.895Z,101.67
2019-04-06T22:34:47.593Z,93.73
2019-04-06T22:37:17.867Z,99.80
2019-04-06T22:39:47.583Z,98.53
2019-04-06T22:42:21.112Z,102.20
2019-04-06T22:44:49.931Z,94.43
2019-04-06T22:47:18.854Z,101.07
2019-04-06T22:49:48.193Z,105.73
2019-04-06T22:52:17.149Z,95.53
2019-04-06T22:54:46.405Z,91.30
2019-04-06T22:57:18.698Z,93.33
2019-04-06T22:59:48.320Z,94.33
2019-04-06T23:02:23.004Z,92.13
2019-04-06T23:05:05.140Z,95.00
2019-04-06T23:07:34.832Z,100.73
2019-04-06T23:10:06.174Z,93.10
2019-04-06T23:12:38.336Z,90.37
2019-04-06T23:15:08.172Z,102.97
2019-04-06T23:17:37.244Z,96.43
2019-04-06T23:20:07.281Z,94.83
2019-04-06T23:22:36.845Z,99.53
2019-04-06T23:25:06.256Z,100.40
2019-04-06T23:27:36.372Z,101.33
2019-04-06T23:30:08.995Z,99.30
2019-04-06T23:32:38.430Z,98.80
2019-04-06T23:35:08.191Z,100.57
2019-04-06T23:37:37.863Z,96.80
2019-04-06T23:40:07.218Z,96.97
2019-04-06T23:42:36.476Z,95.27
2019-04-06T23:45:05.982Z,98.10
2019-04-06T23:47:36.908Z,98.13
2019-04-06T23:50:06.639Z,95.00
2019-04-06T23:52:37.140Z,92.20
2019-04-06T23:55:07.034Z,96.30
2019-04-06T23:57:40.127Z,101.60
